createdAt,value
2018-05-14T00:01:06.060Z,13.84
2018-05-14T00:06:00.461Z,13.86
2018-05-14T00:08:28.355Z,13.87
2018-05-14T00:10:55.903Z,13.89
2018-05-14T00:13:23.490Z,13.86
2018-05-14T00:15:51.063Z,13.87
2018-05-14T00:18:18.604Z,13.89
2018-05-14T00:20:46.162Z,13.93
2018-05-14T00:23:13.884Z,13.94
2018-05-14T00:25:41.431Z,13.98
2018-05-14T00:28:08.977Z,14.01
2018-05-14T00:30:36.547Z,14.02
2018-05-14T00:33:04.156Z,14.03
2018-05-14T00:35:31.697Z,14.05
2018-05-14T00:37:59.421Z,14.05
2018-05-14T00:40:26.971Z,14.06
2018-05-14T00:42:54.503Z,14.04
2018-05-14T00:45:22.075Z,14.06
2018-05-14T00:47:49.608Z,14.06
2018-05-14T00:52:44.330Z,14.08
2018-05-14T00:55:17.750Z,14.08
2018-05-14T00:57:45.501Z,14.12
2018-05-14T01:00:13.105Z,14.12
2018-05-14T01:02:40.650Z,14.11
2018-05-14T01:05:08.228Z,14.10
2018-05-14T01:07:35.766Z,14.15
2018-05-14T01:10:03.335Z,14.16
2018-05-14T01:12:31.258Z,14.16
2018-05-14T01:14:58.812Z,14.16
2018-05-14T01:17:26.412Z,14.16
2018-05-14T01:19:54.112Z,14.14
2018-05-14T01:22:21.657Z,14.14
2018-05-14T01:24:54.682Z,14.14
2018-05-14T01:27:22.273Z,14.15
2018-05-14T01:29:49.827Z,14.17
2018-05-14T01:32:17.370Z,14.14
2018-05-14T01:34:44.909Z,14.15
2018-05-14T01:37:12.455Z,14.19
2018-05-14T01:39:40.213Z,14.14
2018-05-14T01:42:07.748Z,14.10
2018-05-14T01:44:35.299Z,14.11
2018-05-14T01:47:02.880Z,14.10
2018-05-14T01:49:30.428Z,14.05
2018-05-14T01:51:57.967Z,14.03
2018-05-14T01:54:25.555Z,14.11
2018-05-14T01:56:53.090Z,14.08
2018-05-14T01:59:20.637Z,14.05
2018-05-14T02:01:48.595Z,14.07
2018-05-14T02:04:16.135Z,14.06
2018-05-14T02:06:43.765Z,14.08
2018-05-14T02:09:11.270Z,14.11
2018-05-14T02:11:38.826Z,14.12
2018-05-14T02:14:06.363Z,14.12
2018-05-14T02:16:34.096Z,14.09
2018-05-14T02:19:01.640Z,13.92
2018-05-14T02:21:29.203Z,13.95
2018-05-14T02:23:56.788Z,13.97
2018-05-14T02:26:24.324Z,13.99
2018-05-14T02:28:51.895Z,13.96
2018-05-14T02:31:19.743Z,13.95
2018-05-14T02:33:47.305Z,13.97
2018-05-14T02:36:14.857Z,13.98
2018-05-14T02:38:42.456Z,13.95
2018-05-14T02:41:10.038Z,13.95
2018-05-14T02:43:37.583Z,13.95
2018-05-14T02:46:05.175Z,13.93
2018-05-14T02:48:32.720Z,13.98
2018-05-14T02:51:00.282Z,13.97
2018-05-14T02:53:28.004Z,13.95
2018-05-14T02:55:55.560Z,13.96
2018-05-14T02:58:23.148Z,13.97
2018-05-14T03:00:50.840Z,13.94
2018-05-14T03:03:18.404Z,13.96
2018-05-14T03:05:45.953Z,13.98
2018-05-14T03:08:13.697Z,14.01
2018-05-14T03:10:41.244Z,14.01
2018-05-14T03:13:08.791Z,14.01
2018-05-14T03:15:36.377Z,14.04
2018-05-14T03:18:03.979Z,13.98
2018-05-14T03:20:31.526Z,14.04
2018-05-14T03:22:59.242Z,14.06
2018-05-14T03:25:26.793Z,14.11
2018-05-14T03:27:54.355Z,14.15
2018-05-14T03:30:21.980Z,14.18
2018-05-14T03:32:49.550Z,14.07
2018-05-14T03:35:17.092Z,14.00
2018-05-14T03:37:44.667Z,14.04
2018-05-14T03:40:12.243Z,14.13
2018-05-14T03:42:39.834Z,14.19
2018-05-14T03:45:07.486Z,14.24
2018-05-14T03:47:35.003Z,14.30
2018-05-14T03:50:02.572Z,14.31
2018-05-14T03:52:30.188Z,14.36
2018-05-14T03:54:57.728Z,14.44
2018-05-14T03:57:25.284Z,14.49
2018-05-14T04:00:04.659Z,14.49
2018-05-14T04:02:43.869Z,14.56
2018-05-14T04:05:20.145Z,14.58
2018-05-14T04:07:47.696Z,14.61
2018-05-14T04:10:15.253Z,14.62
2018-05-14T04:12:43.005Z,14.63
2018-05-14T04:15:10.584Z,14.67
2018-05-14T04:17:38.115Z,14.67
2018-05-14T04:20:05.853Z,14.68
2018-05-14T04:22:33.399Z,14.70
2018-05-14T04:25:00.957Z,14.78
2018-05-14T04:27:28.694Z,14.85
2018-05-14T04:29:56.257Z,14.92
2018-05-14T04:32:23.809Z,15.05
2018-05-14T04:34:51.429Z,15.18
2018-05-14T04:37:19.004Z,15.33
2018-05-14T04:39:46.567Z,15.49
2018-05-14T04:42:14.295Z,15.70
2018-05-14T04:44:41.881Z,15.86
2018-05-14T04:47:09.430Z,16.04
2018-05-14T04:49:37.171Z,16.05
2018-05-14T04:52:04.709Z,16.21
2018-05-14T04:54:32.269Z,16.49
2018-05-14T04:56:59.994Z,16.78
2018-05-14T04:59:27.535Z,16.90
2018-05-14T05:01:55.088Z,16.84
2018-05-14T05:04:22.674Z,16.79
2018-05-14T05:06:50.222Z,16.82
2018-05-14T05:09:17.775Z,16.79
2018-05-14T05:11:45.461Z,16.74
2018-05-14T05:14:13.007Z,16.73
2018-05-14T05:16:40.564Z,16.71
2018-05-14T05:19:08.146Z,16.66
2018-05-14T05:21:35.712Z,16.71
2018-05-14T05:24:03.268Z,16.64
2018-05-14T05:26:30.845Z,16.55
2018-05-14T05:28:58.393Z,16.63
2018-05-14T05:31:25.998Z,16.51
2018-05-14T05:33:53.726Z,16.39
2018-05-14T05:36:21.282Z,16.46
2018-05-14T05:38:48.832Z,16.61
2018-05-14T05:41:16.739Z,16.80
2018-05-14T05:43:44.294Z,17.00
2018-05-14T05:46:11.849Z,17.27
2018-05-14T05:48:39.439Z,17.45
2018-05-14T05:51:06.980Z,17.49
2018-05-14T05:53:34.532Z,17.46
2018-05-14T05:56:02.113Z,17.43
2018-05-14T05:58:29.649Z,17.44
2018-05-14T06:00:57.184Z,17.53
2018-05-14T06:03:25.101Z,17.47
2018-05-14T06:05:52.651Z,17.51
2018-05-14T06:08:20.204Z,18.12
2018-05-14T06:10:47.937Z,19.33
2018-05-14T06:13:15.495Z,20.51
2018-05-14T06:15:43.058Z,20.97
2018-05-14T06:18:10.640Z,20.65
2018-05-14T06:20:38.179Z,20.81
2018-05-14T06:23:05.732Z,20.82
2018-05-14T06:25:33.407Z,20.80
2018-05-14T06:28:00.961Z,20.85
2018-05-14T06:30:28.521Z,20.58
2018-05-14T06:32:56.262Z,20.47
2018-05-14T06:35:23.815Z,20.72
2018-05-14T06:37:51.371Z,21.11
2018-05-14T06:40:18.936Z,21.63
2018-05-14T06:42:46.590Z,22.33
2018-05-14T06:45:14.060Z,22.84
2018-05-14T06:47:41.643Z,22.97
2018-05-14T06:50:09.362Z,22.84
2018-05-14T06:52:36.909Z,23.03
2018-05-14T06:55:04.500Z,23.23
2018-05-14T06:57:32.053Z,23.03
2018-05-14T06:59:59.592Z,23.22
2018-05-14T07:02:27.178Z,23.32
2018-05-14T07:04:54.731Z,23.41
2018-05-14T07:07:22.283Z,23.50
2018-05-14T07:09:49.966Z,23.44
2018-05-14T07:12:17.509Z,23.30
2018-05-14T07:14:45.052Z,22.92
2018-05-14T07:17:12.772Z,23.03
2018-05-14T07:19:40.316Z,22.48
2018-05-14T07:22:07.876Z,22.77
2018-05-14T07:24:35.563Z,22.75
2018-05-14T07:27:03.109Z,23.00
2018-05-14T07:29:30.655Z,23.12
2018-05-14T07:31:58.255Z,23.23
2018-05-14T07:34:25.819Z,23.43
2018-05-14T07:36:53.392Z,23.43
2018-05-14T07:39:20.979Z,23.86
2018-05-14T07:41:48.519Z,24.31
2018-05-14T07:44:16.064Z,24.00
2018-05-14T07:46:43.775Z,24.08
2018-05-14T07:49:11.357Z,23.86
2018-05-14T07:51:38.920Z,23.69
2018-05-14T07:54:06.636Z,23.65
2018-05-14T07:56:34.198Z,24.38
2018-05-14T07:59:01.772Z,24.16
2018-05-14T08:01:30.125Z,23.80
2018-05-14T08:03:57.688Z,23.53
2018-05-14T08:06:25.247Z,22.64
2018-05-14T08:08:52.815Z,22.34
2018-05-14T08:11:20.370Z,22.62
2018-05-14T08:13:47.919Z,22.20
2018-05-14T08:16:15.509Z,22.11
2018-05-14T08:18:43.063Z,22.39
2018-05-14T08:21:10.614Z,22.32
2018-05-14T08:23:38.346Z,22.39
2018-05-14T08:26:05.940Z,22.48
2018-05-14T08:28:33.497Z,22.41
2018-05-14T08:31:01.094Z,22.26
2018-05-14T08:33:28.648Z,22.24
2018-05-14T08:35:56.214Z,22.34
2018-05-14T08:38:23.787Z,22.25
2018-05-14T08:40:51.341Z,22.21
2018-05-14T08:43:18.896Z,22.02
2018-05-14T08:45:46.470Z,22.30
2018-05-14T08:48:14.021Z,22.45
2018-05-14T08:50:41.572Z,22.55
2018-05-14T08:53:09.153Z,22.56
2018-05-14T08:55:36.752Z,22.39
2018-05-14T08:58:04.347Z,22.69
2018-05-14T09:00:31.919Z,22.68
2018-05-14T09:02:59.470Z,23.08
2018-05-14T09:05:27.022Z,23.25
2018-05-14T09:07:54.607Z,23.47
2018-05-14T09:10:22.153Z,23.36
2018-05-14T09:12:49.706Z,23.56
2018-05-14T09:15:17.605Z,23.84
2018-05-14T09:17:45.146Z,23.29
2018-05-14T09:20:12.702Z,23.07
2018-05-14T09:22:40.595Z,23.07
2018-05-14T09:25:08.137Z,23.23
2018-05-14T09:27:35.678Z,23.66
2018-05-14T09:30:03.269Z,23.73
2018-05-14T09:32:30.813Z,23.75
2018-05-14T09:34:58.366Z,23.55
2018-05-14T09:37:25.913Z,23.86
2018-05-14T09:39:53.455Z,24.33
2018-05-14T09:42:21.034Z,24.42
2018-05-14T09:44:48.575Z,24.61
2018-05-14T09:47:16.117Z,24.20
2018-05-14T09:49:43.681Z,23.99
2018-05-14T09:52:11.231Z,23.66
2018-05-14T09:54:38.767Z,23.42
2018-05-14T09:57:06.327Z,23.67
2018-05-14T09:59:33.875Z,23.60
2018-05-14T10:02:01.417Z,23.55
2018-05-14T10:04:28.984Z,23.47
2018-05-14T10:06:56.523Z,23.66
2018-05-14T10:09:24.080Z,23.47
2018-05-14T10:11:51.988Z,23.68
2018-05-14T10:14:19.528Z,23.97
2018-05-14T10:16:47.083Z,24.07
2018-05-14T10:19:14.665Z,23.98
2018-05-14T10:21:42.218Z,24.15
2018-05-14T10:24:09.771Z,24.69
2018-05-14T10:26:37.356Z,25.00
2018-05-14T10:29:04.903Z,24.85
2018-05-14T10:31:32.450Z,24.89
2018-05-14T10:34:00.168Z,25.02
2018-05-14T10:36:27.710Z,24.98
2018-05-14T10:38:55.256Z,24.90
2018-05-14T10:41:22.975Z,24.81
2018-05-14T10:43:50.513Z,24.24
2018-05-14T10:46:18.068Z,23.48
2018-05-14T10:48:45.796Z,22.80
2018-05-14T10:51:13.344Z,22.53
2018-05-14T10:53:40.880Z,21.84
2018-05-14T10:56:08.476Z,21.54
2018-05-14T10:58:36.047Z,21.35
2018-05-14T11:01:03.584Z,21.40
2018-05-14T11:03:31.155Z,21.42
2018-05-14T11:05:58.697Z,21.33
2018-05-14T11:08:26.237Z,21.37
2018-05-14T11:10:54.160Z,21.35
2018-05-14T11:13:21.714Z,21.27
2018-05-14T11:15:49.276Z,21.11
2018-05-14T11:18:16.865Z,20.97
2018-05-14T11:20:44.409Z,20.78
2018-05-14T11:23:12.356Z,20.66
2018-05-14T11:25:39.942Z,20.56
2018-05-14T11:28:08.025Z,20.49
2018-05-14T11:30:35.572Z,20.41
2018-05-14T11:33:03.471Z,20.22
2018-05-14T11:35:31.029Z,20.26
2018-05-14T11:37:58.583Z,20.31
2018-05-14T11:40:26.492Z,20.40
2018-05-14T11:42:54.036Z,20.43
2018-05-14T11:45:21.588Z,20.34
2018-05-14T11:47:49.185Z,20.29
2018-05-14T11:50:16.716Z,20.35
2018-05-14T11:52:44.260Z,20.38
2018-05-14T11:55:12.114Z,20.22
2018-05-14T11:57:39.669Z,20.18
2018-05-14T12:00:07.257Z,20.22
2018-05-14T12:02:35.173Z,20.53
2018-05-14T12:05:02.717Z,20.77
2018-05-14T12:07:30.272Z,21.01
2018-05-14T12:09:57.956Z,20.95
2018-05-14T12:12:25.450Z,21.18
2018-05-14T12:14:53.007Z,21.13
2018-05-14T12:17:20.889Z,21.43
2018-05-14T12:19:48.462Z,21.84
2018-05-14T12:22:16.018Z,21.84
2018-05-14T12:24:43.751Z,21.99
2018-05-14T12:27:11.291Z,22.14
2018-05-14T12:29:38.831Z,22.06
2018-05-14T12:32:06.509Z,22.01
2018-05-14T12:34:34.014Z,22.08
2018-05-14T12:37:01.593Z,22.30
2018-05-14T12:39:29.188Z,22.24
2018-05-14T12:41:56.748Z,21.93
2018-05-14T12:44:24.299Z,21.58
2018-05-14T12:46:51.872Z,21.68
2018-05-14T12:49:19.428Z,21.47
2018-05-14T12:51:46.975Z,21.46
2018-05-14T12:54:14.711Z,21.55
2018-05-14T12:56:42.248Z,21.37
2018-05-14T12:59:09.793Z,21.20
2018-05-14T13:01:37.519Z,21.18
2018-05-14T13:04:06.964Z,21.26
2018-05-14T13:06:34.820Z,21.48
2018-05-14T13:09:02.559Z,21.50
2018-05-14T13:11:30.099Z,21.44
2018-05-14T13:13:57.645Z,21.48
2018-05-14T13:16:25.364Z,21.56
2018-05-14T13:18:53.042Z,21.78
2018-05-14T13:21:20.529Z,21.87
2018-05-14T13:23:48.271Z,21.79
2018-05-14T13:26:15.886Z,21.88
2018-05-14T13:28:43.392Z,22.10
2018-05-14T13:31:11.074Z,22.27
2018-05-14T13:33:38.659Z,22.68
2018-05-14T13:36:06.206Z,22.65
2018-05-14T13:38:33.787Z,22.60
2018-05-14T13:41:01.334Z,22.49
2018-05-14T13:43:28.909Z,22.35
2018-05-14T13:45:57.642Z,22.52
2018-05-14T13:48:25.186Z,22.73
2018-05-14T13:50:52.759Z,22.84
2018-05-14T13:53:20.336Z,22.95
2018-05-14T13:55:47.883Z,22.89
2018-05-14T13:58:15.431Z,22.76
2018-05-14T14:00:43.005Z,22.84
2018-05-14T14:03:10.571Z,22.83
2018-05-14T14:05:38.110Z,22.70
2018-05-14T14:08:05.889Z,22.57
2018-05-14T14:10:33.445Z,22.44
2018-05-14T14:13:00.996Z,22.31
2018-05-14T14:15:28.583Z,22.32
2018-05-14T14:17:56.144Z,21.93
2018-05-14T14:20:23.713Z,21.66
2018-05-14T14:22:51.522Z,21.37
2018-05-14T14:25:19.077Z,21.22
2018-05-14T14:27:46.643Z,21.12
2018-05-14T14:30:14.376Z,21.03
2018-05-14T14:32:41.915Z,21.06
2018-05-14T14:35:09.460Z,21.03
2018-05-14T14:37:37.017Z,21.02
2018-05-14T14:40:04.608Z,21.02
2018-05-14T14:42:32.176Z,21.07
2018-05-14T14:44:59.712Z,21.06
2018-05-14T14:47:27.264Z,21.08
2018-05-14T14:49:54.972Z,21.11
2018-05-14T14:52:22.520Z,21.22
2018-05-14T14:54:50.102Z,21.19
2018-05-14T14:57:17.821Z,21.04
2018-05-14T14:59:45.381Z,20.96
2018-05-14T15:02:12.940Z,20.94
2018-05-14T15:04:40.672Z,20.92
2018-05-14T15:07:08.210Z,20.95
2018-05-14T15:09:35.774Z,21.02
2018-05-14T15:12:03.690Z,21.14
2018-05-14T15:14:31.241Z,21.31
2018-05-14T15:16:58.825Z,21.40
2018-05-14T15:19:26.612Z,21.52
2018-05-14T15:21:54.154Z,21.27
2018-05-14T15:24:21.700Z,21.12
2018-05-14T15:26:49.436Z,21.17
2018-05-14T15:29:16.973Z,21.06
2018-05-14T15:31:44.515Z,20.82
2018-05-14T15:34:12.229Z,20.72
2018-05-14T15:36:39.761Z,20.70
2018-05-14T15:39:07.308Z,20.66
2018-05-14T15:41:34.890Z,20.57
2018-05-14T15:44:02.433Z,20.51
2018-05-14T15:46:29.974Z,20.44
2018-05-14T15:48:57.547Z,20.40
2018-05-14T15:51:25.095Z,20.38
2018-05-14T15:53:52.650Z,20.34
2018-05-14T15:56:20.236Z,20.34
2018-05-14T15:58:47.793Z,20.32
2018-05-14T16:01:15.356Z,20.37
2018-05-14T16:03:42.933Z,20.44
2018-05-14T16:06:10.487Z,20.50
2018-05-14T16:08:38.038Z,20.47
2018-05-14T16:11:05.777Z,20.32
2018-05-14T16:13:33.332Z,20.28
2018-05-14T16:16:00.879Z,20.16
2018-05-14T16:18:28.462Z,20.15
2018-05-14T16:20:56.029Z,20.16
2018-05-14T16:23:23.589Z,20.17
2018-05-14T16:25:51.177Z,20.13
2018-05-14T16:28:18.740Z,19.98
2018-05-14T16:30:46.284Z,19.82
2018-05-14T16:33:13.902Z,19.51
2018-05-14T16:35:41.484Z,19.46
2018-05-14T16:38:09.054Z,19.46
2018-05-14T16:40:36.735Z,19.49
2018-05-14T16:43:04.333Z,19.53
2018-05-14T16:45:31.881Z,19.53
2018-05-14T16:47:59.795Z,19.49
2018-05-14T16:50:27.500Z,19.50
2018-05-14T16:52:54.980Z,19.46
2018-05-14T16:55:22.584Z,19.44
2018-05-14T16:57:50.186Z,19.43
2018-05-14T17:00:17.741Z,19.36
2018-05-14T17:02:45.303Z,19.36
2018-05-14T17:05:12.856Z,19.29
2018-05-14T17:07:40.396Z,19.29
2018-05-14T17:10:08.125Z,19.16
2018-05-14T17:12:35.693Z,19.13
2018-05-14T17:15:03.334Z,19.15
2018-05-14T17:17:30.933Z,19.11
2018-05-14T17:19:58.538Z,19.07
2018-05-14T17:22:26.081Z,19.04
2018-05-14T17:24:53.656Z,19.01
2018-05-14T17:27:21.204Z,18.97
2018-05-14T17:29:48.746Z,18.93
2018-05-14T17:32:16.731Z,18.83
2018-05-14T17:34:44.309Z,18.78
2018-05-14T17:37:11.858Z,18.74
2018-05-14T17:39:39.437Z,18.67
2018-05-14T17:42:07.040Z,18.62
2018-05-14T17:44:34.602Z,18.54
2018-05-14T17:47:02.986Z,18.54
2018-05-14T17:49:30.518Z,18.53
2018-05-14T17:51:58.123Z,18.49
2018-05-14T17:54:25.714Z,18.49
2018-05-14T17:56:53.263Z,18.42
2018-05-14T17:59:20.851Z,18.42
2018-05-14T18:01:48.454Z,18.41
2018-05-14T18:04:16.056Z,18.38
2018-05-14T18:06:43.648Z,18.36
2018-05-14T18:09:11.252Z,18.40
2018-05-14T18:11:38.835Z,18.41
2018-05-14T18:14:06.428Z,18.37
2018-05-14T18:16:34.252Z,18.38
2018-05-14T18:19:01.807Z,18.34
2018-05-14T18:21:34.960Z,18.29
2018-05-14T18:24:02.693Z,18.17
2018-05-14T18:26:35.827Z,18.14
2018-05-14T18:29:06.254Z,18.06
2018-05-14T18:31:33.890Z,18.06
2018-05-14T18:34:08.819Z,18.02
2018-05-14T18:36:36.410Z,18.01
2018-05-14T18:39:04.070Z,18.02
2018-05-14T18:41:31.625Z,18.04
2018-05-14T18:43:59.219Z,17.97
2018-05-14T18:46:26.820Z,17.93
2018-05-14T18:48:54.757Z,17.87
2018-05-14T18:51:22.319Z,17.86
2018-05-14T18:53:49.878Z,17.83
2018-05-14T18:56:17.564Z,17.84
2018-05-14T18:58:45.161Z,17.81
2018-05-14T19:01:12.732Z,17.74
2018-05-14T19:03:40.354Z,17.70
2018-05-14T19:06:07.969Z,17.69
2018-05-14T19:08:35.533Z,17.65
2018-05-14T19:11:09.065Z,17.59
2018-05-14T19:13:36.668Z,17.42
2018-05-14T19:16:09.762Z,17.40
2018-05-14T19:18:38.957Z,17.38
2018-05-14T19:21:06.530Z,17.34
2018-05-14T19:23:39.756Z,17.31
2018-05-14T19:26:07.399Z,17.22
2018-05-14T19:28:40.676Z,17.17
2018-05-14T19:31:08.240Z,17.17
2018-05-14T19:33:41.544Z,17.12
2018-05-14T19:36:09.196Z,17.06
2018-05-14T19:38:36.679Z,16.94
2018-05-14T19:41:04.304Z,16.86
2018-05-14T19:43:31.889Z,16.79
2018-05-14T19:46:00.370Z,16.78
2018-05-14T19:48:27.982Z,16.75
2018-05-14T19:50:55.580Z,16.63
2018-05-14T19:53:23.195Z,16.64
2018-05-14T19:55:50.793Z,16.65
2018-05-14T19:58:18.364Z,16.58
2018-05-14T20:00:45.947Z,16.58
2018-05-14T20:03:13.635Z,16.58
2018-05-14T20:05:41.188Z,16.56
2018-05-14T20:08:08.790Z,16.55
2018-05-14T20:10:36.552Z,16.50
2018-05-14T20:13:04.141Z,16.49
2018-05-14T20:15:31.728Z,16.51
2018-05-14T20:17:59.355Z,16.49
2018-05-14T20:20:26.917Z,16.48
2018-05-14T20:22:54.495Z,16.43
2018-05-14T20:25:22.237Z,16.45
2018-05-14T20:27:49.824Z,16.45
2018-05-14T20:30:17.385Z,16.46
2018-05-14T20:32:45.318Z,16.48
2018-05-14T20:35:12.892Z,16.49
2018-05-14T20:37:40.490Z,16.52
2018-05-14T20:40:08.239Z,16.54
2018-05-14T20:42:35.798Z,16.49
2018-05-14T20:45:03.392Z,16.46
2018-05-14T20:47:31.154Z,16.43
2018-05-14T20:49:58.735Z,16.41
2018-05-14T20:52:26.292Z,16.38
2018-05-14T20:54:54.057Z,16.32
2018-05-14T20:57:21.609Z,16.30
2018-05-14T20:59:49.165Z,16.26
2018-05-14T21:02:16.802Z,16.22
2018-05-14T21:04:44.352Z,16.16
2018-05-14T21:07:11.923Z,16.11
2018-05-14T21:09:39.507Z,16.07
2018-05-14T21:12:07.081Z,15.98
2018-05-14T21:14:34.638Z,15.93
2018-05-14T21:17:02.364Z,15.90
2018-05-14T21:19:29.915Z,15.78
2018-05-14T21:21:57.482Z,15.73
2018-05-14T21:24:25.059Z,15.68
2018-05-14T21:26:52.632Z,15.67
2018-05-14T21:29:20.182Z,15.67
2018-05-14T21:31:47.907Z,15.54
2018-05-14T21:34:15.460Z,15.48
2018-05-14T21:36:43.042Z,15.44
2018-05-14T21:39:10.813Z,15.44
2018-05-14T21:41:38.388Z,15.40
2018-05-14T21:44:05.942Z,15.40
2018-05-14T21:46:33.679Z,15.38
2018-05-14T21:49:01.225Z,15.34
2018-05-14T21:51:28.768Z,15.30
2018-05-14T21:53:56.382Z,15.26
2018-05-14T21:56:23.922Z,15.25
2018-05-14T21:58:51.472Z,15.18
2018-05-14T22:01:19.217Z,15.15
2018-05-14T22:03:46.777Z,15.10
2018-05-14T22:06:14.365Z,15.07
2018-05-14T22:08:42.095Z,15.04
2018-05-14T22:11:10.405Z,15.02
2018-05-14T22:13:37.944Z,15.01
2018-05-14T22:16:05.868Z,14.97
2018-05-14T22:18:33.419Z,14.92
2018-05-14T22:21:00.971Z,14.93
2018-05-14T22:23:28.649Z,14.88
2018-05-14T22:25:56.192Z,14.91
2018-05-14T22:28:23.740Z,14.86
2018-05-14T22:30:51.504Z,14.79
2018-05-14T22:35:45.882Z,14.81
2018-05-14T22:38:13.466Z,14.83
2018-05-14T22:40:41.019Z,14.85
2018-05-14T22:43:08.744Z,14.85
2018-05-14T22:45:36.289Z,14.82
2018-05-14T22:48:03.851Z,14.81
2018-05-14T22:50:31.424Z,14.82
2018-05-14T22:52:58.977Z,14.83
2018-05-14T22:55:26.513Z,14.81
2018-05-14T22:57:54.252Z,14.80
2018-05-14T23:00:31.209Z,14.81
2018-05-14T23:02:58.775Z,14.82
2018-05-14T23:05:26.336Z,14.83
2018-05-14T23:07:53.896Z,14.85
2018-05-14T23:10:21.573Z,14.85
2018-05-14T23:12:49.141Z,14.85
2018-05-14T23:15:16.689Z,14.88
2018-05-14T23:17:44.261Z,14.92
2018-05-14T23:20:11.817Z,14.93
2018-05-14T23:22:43.118Z,14.93
2018-05-14T23:25:10.862Z,14.94
2018-05-14T23:27:38.434Z,14.96
2018-05-14T23:30:05.997Z,15.01
2018-05-14T23:32:33.582Z,15.03
2018-05-14T23:35:01.136Z,15.03
2018-05-14T23:37:28.689Z,15.04
2018-05-14T23:39:56.377Z,15.07
2018-05-14T23:42:23.947Z,15.11
2018-05-14T23:44:51.540Z,15.11
2018-05-14T23:47:19.269Z,15.13
2018-05-14T23:49:46.827Z,15.20
2018-05-14T23:52:14.389Z,15.21
2018-05-14T23:54:42.293Z,15.23
2018-05-14T23:57:09.845Z,15.26
2018-05-14T23:59:37.397Z,15.28
